createdAt,value
2022-10-12T00:05:21.709Z,10.7
2022-10-12T00:08:21.703Z,10.6
2022-10-12T00:11:21.711Z,10.6
2022-10-12T00:14:21.707Z,10.6
2022-10-12T00:17:21.707Z,10.6
2022-10-12T00:20:21.704Z,10.6
2022-10-12T00:23:21.703Z,10.6
2022-10-12T00:26:21.721Z,10.6
2022-10-12T00:29:21.705Z,10.5
2022-10-12T00:32:21.705Z,10.5
2022-10-12T00:35:21.703Z,10.4
2022-10-12T00:38:21.706Z,10.4
2022-10-12T00:41:21.708Z,10.4
2022-10-12T00:44:21.708Z,10.4
2022-10-12T00:47:21.711Z,10.4
2022-10-12T00:50:21.697Z,10.3
2022-10-12T00:53:21.703Z,10.3
2022-10-12T00:56:21.709Z,10.3
2022-10-12T00:59:21.706Z,10.3
2022-10-12T01:02:21.705Z,10.3
2022-10-12T01:05:21.700Z,10.3
2022-10-12T01:08:21.713Z,10.3
2022-10-12T01:11:21.714Z,10.3
2022-10-12T01:14:21.713Z,10.3
2022-10-12T01:17:21.709Z,10.3
2022-10-12T01:20:21.712Z,10.3
2022-10-12T01:23:21.710Z,10.3
2022-10-12T01:26:21.719Z,10.3
2022-10-12T01:29:21.717Z,10.3
2022-10-12T01:32:21.717Z,10.3
2022-10-12T01:35:21.716Z,10.2
2022-10-12T01:38:21.714Z,10.2
2022-10-12T01:41:21.726Z,10.2
2022-10-12T01:44:21.710Z,10.2
2022-10-12T01:47:21.715Z,10.2
2022-10-12T01:50:21.721Z,10.2
2022-10-12T01:53:21.717Z,10.2
2022-10-12T01:56:21.721Z,10.2
2022-10-12T01:59:21.718Z,10.2
2022-10-12T02:02:21.716Z,10.2
2022-10-12T02:08:21.711Z,10.2
2022-10-12T02:11:21.728Z,10.2
2022-10-12T02:14:21.714Z,10.2
2022-10-12T02:17:21.711Z,10.1
2022-10-12T02:20:21.720Z,10.1
2022-10-12T02:23:21.721Z,10.1
2022-10-12T02:26:21.723Z,10.1
2022-10-12T02:29:21.724Z,10.1
2022-10-12T02:32:21.721Z,10.1
2022-10-12T02:35:21.721Z,10.1
2022-10-12T02:38:21.713Z,10.1
2022-10-12T02:41:21.717Z,10.1
2022-10-12T02:44:21.715Z,10.1
2022-10-12T02:47:21.726Z,10.1
2022-10-12T02:50:21.742Z,10.1
2022-10-12T02:53:21.718Z,10.1
2022-10-12T02:56:21.729Z,10.1
2022-10-12T02:59:21.716Z,10.1
2022-10-12T03:02:21.728Z,10.1
2022-10-12T03:05:21.724Z,10.1
2022-10-12T03:08:21.725Z,10.1
2022-10-12T03:11:21.736Z,10.1
2022-10-12T03:14:21.715Z,10
2022-10-12T03:17:21.729Z,10
2022-10-12T03:20:21.730Z,10
2022-10-12T03:23:21.727Z,10
2022-10-12T03:26:23.032Z,10
2022-10-12T03:29:21.754Z,10
2022-10-12T03:32:21.762Z,10
2022-10-12T03:38:21.754Z,10
2022-10-12T03:41:21.760Z,10
2022-10-12T03:44:21.758Z,10
2022-10-12T03:47:21.762Z,10
2022-10-12T03:50:21.756Z,10
2022-10-12T03:53:21.760Z,10
2022-10-12T03:56:21.763Z,10
2022-10-12T03:59:21.759Z,10
2022-10-12T04:02:21.758Z,10
2022-10-12T04:05:21.752Z,10
2022-10-12T04:08:21.769Z,10
2022-10-12T04:11:21.764Z,10
2022-10-12T04:14:21.756Z,9.9
2022-10-12T04:17:21.757Z,9.9
2022-10-12T04:20:21.756Z,9.9
2022-10-12T04:23:21.754Z,9.9
2022-10-12T04:26:21.766Z,9.9
2022-10-12T04:29:21.759Z,9.9
2022-10-12T04:32:21.753Z,9.9
2022-10-12T04:35:21.755Z,9.9
2022-10-12T04:38:21.767Z,9.9
2022-10-12T04:41:21.763Z,9.9
2022-10-12T04:44:21.758Z,9.9
2022-10-12T04:47:21.767Z,9.9
2022-10-12T04:50:23.404Z,9.9
2022-10-12T04:53:21.764Z,9.8
2022-10-12T04:56:21.763Z,9.8
2022-10-12T04:59:21.761Z,9.8
2022-10-12T05:02:21.763Z,9.8
2022-10-12T05:05:21.768Z,9.8
2022-10-12T05:08:21.762Z,9.7
2022-10-12T05:14:21.771Z,9.7
2022-10-12T05:17:21.771Z,9.7
2022-10-12T05:20:21.770Z,9.7
2022-10-12T05:23:21.765Z,9.7
2022-10-12T05:26:21.780Z,9.7
2022-10-12T05:29:21.772Z,9.7
2022-10-12T05:35:21.772Z,9.7
2022-10-12T05:38:21.756Z,9.7
2022-10-12T05:41:21.780Z,9.7
2022-10-12T05:44:21.785Z,9.7
2022-10-12T05:47:21.788Z,9.7
2022-10-12T05:53:21.777Z,9.7
2022-10-12T05:56:21.787Z,9.7
2022-10-12T05:59:21.774Z,9.7
2022-10-12T06:02:21.778Z,9.7
2022-10-12T06:05:21.786Z,9.7
2022-10-12T06:08:21.778Z,9.6
2022-10-12T06:11:22.490Z,9.6
2022-10-12T06:14:21.864Z,9.6
2022-10-12T06:20:21.856Z,9.6
2022-10-12T06:23:21.854Z,9.6
2022-10-12T06:26:21.879Z,9.6
2022-10-12T06:29:21.864Z,9.6
2022-10-12T06:32:21.861Z,9.6
2022-10-12T06:35:21.863Z,9.6
2022-10-12T06:38:21.869Z,9.6
2022-10-12T06:41:21.851Z,9.6
2022-10-12T06:47:21.864Z,9.6
2022-10-12T06:50:21.867Z,9.6
2022-10-12T06:53:21.875Z,9.6
2022-10-12T06:56:21.865Z,9.6
2022-10-12T07:02:21.871Z,9.6
2022-10-12T07:05:21.873Z,9.7
2022-10-12T07:08:21.867Z,9.7
2022-10-12T07:11:21.868Z,9.7
2022-10-12T07:14:21.877Z,9.7
2022-10-12T07:17:21.872Z,9.7
2022-10-12T07:20:21.876Z,9.7
2022-10-12T07:23:21.868Z,9.7
2022-10-12T07:26:21.872Z,9.7
2022-10-12T07:29:21.869Z,9.8
2022-10-12T07:32:22.307Z,9.8
2022-10-12T07:35:22.290Z,9.8
2022-10-12T07:38:22.287Z,9.8
2022-10-12T07:41:22.287Z,9.8
2022-10-12T07:44:22.292Z,9.8
2022-10-12T07:47:22.283Z,9.8
2022-10-12T07:50:22.322Z,9.9
2022-10-12T07:53:22.290Z,9.9
2022-10-12T07:56:22.292Z,9.9
2022-10-12T07:59:22.298Z,9.9
2022-10-12T08:02:22.300Z,9.9
2022-10-12T08:05:22.293Z,9.9
2022-10-12T08:08:22.280Z,10
2022-10-12T08:11:22.293Z,10
2022-10-12T08:14:22.295Z,10
2022-10-12T08:17:22.297Z,10
2022-10-12T08:20:22.286Z,10.1
2022-10-12T08:23:22.293Z,10.1
2022-10-12T08:26:22.293Z,10.1
2022-10-12T08:29:22.300Z,10.1
2022-10-12T08:32:22.292Z,10.1
2022-10-12T08:35:22.300Z,10.2
2022-10-12T08:38:22.287Z,10.2
2022-10-12T08:41:22.292Z,10.2
2022-10-12T08:44:22.296Z,10.3
2022-10-12T08:47:22.296Z,10.3
2022-10-12T08:50:22.294Z,10.3
2022-10-12T08:53:22.292Z,10.4
2022-10-12T08:59:22.302Z,10.4
2022-10-12T09:02:22.292Z,10.5
2022-10-12T09:05:22.303Z,10.5
2022-10-12T09:08:22.327Z,10.5
2022-10-12T09:11:22.298Z,10.5
2022-10-12T09:14:22.295Z,10.6
2022-10-12T09:17:22.305Z,10.6
2022-10-12T09:20:22.308Z,10.6
2022-10-12T09:23:22.297Z,10.7
2022-10-12T09:26:22.310Z,10.7
2022-10-12T09:29:22.308Z,10.8
2022-10-12T09:32:22.310Z,10.8
2022-10-12T09:35:22.305Z,10.9
2022-10-12T09:38:22.300Z,10.9
2022-10-12T09:41:22.307Z,11.1
2022-10-12T09:44:22.307Z,11.1
2022-10-12T09:47:22.313Z,11.2
2022-10-12T09:50:22.324Z,11.2
2022-10-12T09:53:22.307Z,11.3
2022-10-12T09:56:22.311Z,11.4
2022-10-12T09:59:22.317Z,11.4
2022-10-12T10:02:22.311Z,11.4
2022-10-12T10:05:22.314Z,11.5
2022-10-12T10:08:22.312Z,11.5
2022-10-12T10:11:22.305Z,11.6
2022-10-12T10:14:22.312Z,11.6
2022-10-12T10:17:22.302Z,11.7
2022-10-12T10:20:22.320Z,11.7
2022-10-12T10:23:22.314Z,11.8
2022-10-12T10:26:22.332Z,11.8
2022-10-12T10:29:22.313Z,11.9
2022-10-12T10:32:22.328Z,11.9
2022-10-12T10:35:22.317Z,12
2022-10-12T10:38:22.314Z,12
2022-10-12T10:41:22.322Z,12
2022-10-12T10:47:22.318Z,12.1
2022-10-12T10:50:22.316Z,12.1
2022-10-12T10:53:22.315Z,12.2
2022-10-12T10:56:22.316Z,12.2
2022-10-12T10:59:22.316Z,12.2
2022-10-12T11:02:22.326Z,12.3
2022-10-12T11:05:22.327Z,12.3
2022-10-12T11:08:22.329Z,12.3
2022-10-12T11:11:22.323Z,12.4
2022-10-12T11:14:22.319Z,12.4
2022-10-12T11:17:22.327Z,12.5
2022-10-12T11:20:22.326Z,12.6
2022-10-12T11:23:22.334Z,12.6
2022-10-12T11:26:22.329Z,12.6
2022-10-12T11:29:22.331Z,12.7
2022-10-12T11:32:22.911Z,12.7
2022-10-12T11:35:22.332Z,12.8
2022-10-12T11:38:22.335Z,12.8
2022-10-12T11:41:35.251Z,12.9
2022-10-12T11:44:25.217Z,12.9
2022-10-12T11:47:22.327Z,13.1
2022-10-12T11:50:22.329Z,13.2
2022-10-12T11:53:22.339Z,13.2
2022-10-12T11:56:22.334Z,13.3
2022-10-12T11:59:22.333Z,13.3
2022-10-12T12:02:22.333Z,13.3
2022-10-12T12:05:22.334Z,13.5
2022-10-12T12:08:22.332Z,13.5
2022-10-12T12:11:22.337Z,13.6
2022-10-12T12:14:22.333Z,13.7
2022-10-12T12:17:22.348Z,13.7
2022-10-12T12:20:22.338Z,13.8
2022-10-12T12:23:22.335Z,13.9
2022-10-12T12:26:22.336Z,13.9
2022-10-12T12:29:22.333Z,14
2022-10-12T12:32:22.337Z,14.1
2022-10-12T12:35:22.334Z,14.1
2022-10-12T12:38:22.335Z,14.1
2022-10-12T12:41:22.343Z,14.1
2022-10-12T12:44:22.338Z,14.2
2022-10-12T12:47:45.774Z,14.2
2022-10-12T12:50:22.340Z,14.3
2022-10-12T12:53:22.345Z,14.3
2022-10-12T12:56:22.339Z,14.3
2022-10-12T12:59:22.343Z,14.4
2022-10-12T13:02:22.342Z,14.4
2022-10-12T13:05:22.346Z,14.4
2022-10-12T13:08:22.344Z,14.4
2022-10-12T13:11:22.343Z,14.5
2022-10-12T13:14:22.337Z,14.6
2022-10-12T13:17:33.781Z,14.6
2022-10-12T13:23:22.365Z,14.6
2022-10-12T13:26:22.351Z,14.7
2022-10-12T13:29:22.359Z,14.8
2022-10-12T13:32:22.358Z,14.8
2022-10-12T13:35:22.351Z,14.8
2022-10-12T13:38:22.348Z,14.8
2022-10-12T13:41:22.350Z,14.8
2022-10-12T13:44:22.349Z,14.8
2022-10-12T13:47:22.353Z,14.9
2022-10-12T13:50:22.350Z,14.9
2022-10-12T13:53:22.346Z,14.9
2022-10-12T13:56:22.355Z,14.9
2022-10-12T13:59:22.353Z,15
2022-10-12T14:02:22.353Z,15
2022-10-12T14:05:22.350Z,15
2022-10-12T14:08:22.363Z,15
2022-10-12T14:11:22.357Z,15
2022-10-12T14:14:22.352Z,15
2022-10-12T14:17:22.355Z,15
2022-10-12T14:20:22.359Z,15
2022-10-12T14:23:22.354Z,15
2022-10-12T14:26:22.357Z,15
2022-10-12T14:29:22.359Z,15
2022-10-12T14:32:22.355Z,15
2022-10-12T14:38:22.357Z,15
2022-10-12T14:41:22.356Z,15
2022-10-12T14:44:22.353Z,15
2022-10-12T14:47:22.361Z,15
2022-10-12T14:50:22.358Z,15
2022-10-12T14:53:22.397Z,15
2022-10-12T14:56:22.365Z,15
2022-10-12T14:59:22.372Z,14.9
2022-10-12T15:02:22.373Z,14.9
2022-10-12T15:05:22.371Z,14.9
2022-10-12T15:08:22.361Z,14.9
2022-10-12T15:11:22.359Z,14.9
2022-10-12T15:14:22.361Z,14.9
2022-10-12T15:17:22.367Z,14.9
2022-10-12T15:20:22.361Z,14.9
2022-10-12T15:23:22.370Z,14.9
2022-10-12T15:26:22.361Z,14.9
2022-10-12T15:29:22.363Z,14.8
2022-10-12T15:32:22.368Z,14.8
2022-10-12T15:35:22.381Z,14.8
2022-10-12T15:38:22.420Z,14.8
2022-10-12T15:41:22.385Z,14.7
2022-10-12T15:44:22.385Z,14.7
2022-10-12T15:47:22.392Z,14.7
2022-10-12T15:50:22.395Z,14.6
2022-10-12T15:53:22.470Z,14.6
2022-10-12T15:56:22.392Z,14.6
2022-10-12T15:59:22.395Z,14.6
2022-10-12T16:02:22.391Z,14.6
2022-10-12T16:05:22.397Z,14.5
2022-10-12T16:08:22.394Z,14.5
2022-10-12T16:14:22.387Z,14.4
2022-10-12T16:17:22.391Z,14.4
2022-10-12T16:20:22.397Z,14.4
2022-10-12T16:23:22.406Z,14.4
2022-10-12T16:26:22.380Z,14.3
2022-10-12T16:29:22.404Z,14.3
2022-10-12T16:32:22.387Z,14.3
2022-10-12T16:35:22.397Z,14.3
2022-10-12T16:38:22.407Z,14.2
2022-10-12T16:41:22.389Z,14.2
2022-10-12T16:44:22.384Z,14.2
2022-10-12T16:47:22.389Z,14.1
2022-10-12T16:50:22.380Z,14.1
2022-10-12T16:53:22.392Z,14.1
2022-10-12T16:56:22.389Z,14.1
2022-10-12T16:59:22.388Z,14.1
2022-10-12T17:02:22.404Z,14.1
2022-10-12T17:05:22.383Z,14
2022-10-12T17:08:22.406Z,14
2022-10-12T17:11:22.404Z,14
2022-10-12T17:14:22.395Z,14
2022-10-12T17:17:22.386Z,14
2022-10-12T17:20:22.390Z,14
2022-10-12T17:23:22.401Z,14
2022-10-12T17:26:22.397Z,14
2022-10-12T17:29:22.395Z,14
2022-10-12T17:32:22.391Z,14
2022-10-12T17:35:22.397Z,14
2022-10-12T17:38:22.438Z,13.9
2022-10-12T17:41:22.396Z,13.9
2022-10-12T17:44:22.395Z,13.9
2022-10-12T17:47:22.397Z,13.9
2022-10-12T17:50:22.400Z,13.9
2022-10-12T17:53:22.397Z,13.8
2022-10-12T17:59:22.399Z,13.8
2022-10-12T18:02:22.463Z,13.8
2022-10-12T18:05:22.423Z,13.7
2022-10-12T18:08:22.419Z,13.7
2022-10-12T18:11:22.420Z,13.7
2022-10-12T18:14:22.411Z,13.7
2022-10-12T18:17:22.415Z,13.7
2022-10-12T18:20:22.438Z,13.6
2022-10-12T18:23:22.418Z,13.6
2022-10-12T18:26:22.406Z,13.6
2022-10-12T18:29:22.415Z,13.6
2022-10-12T18:32:22.408Z,13.5
2022-10-12T18:38:22.421Z,13.5
2022-10-12T18:41:22.597Z,13.4
2022-10-12T18:44:22.408Z,13.4
2022-10-12T18:47:24.459Z,13.4
2022-10-12T18:50:22.404Z,13.4
2022-10-12T18:53:22.411Z,13.3
2022-10-12T18:56:22.410Z,13.3
2022-10-12T18:59:22.412Z,13.3
2022-10-12T19:02:22.415Z,13.3
2022-10-12T19:05:22.416Z,13.2
2022-10-12T19:08:22.406Z,13.2
2022-10-12T19:11:22.417Z,13.2
2022-10-12T19:14:22.409Z,13.1
2022-10-12T19:17:22.410Z,13.1
2022-10-12T19:20:22.408Z,13.1
2022-10-12T19:23:22.404Z,13
2022-10-12T19:26:22.405Z,13
2022-10-12T19:29:22.409Z,13
2022-10-12T19:32:22.418Z,13
2022-10-12T19:35:22.419Z,13
2022-10-12T19:38:22.416Z,12.9
2022-10-12T19:41:22.406Z,12.9
2022-10-12T19:44:22.416Z,12.9
2022-10-12T19:47:22.409Z,12.9
2022-10-12T19:50:22.410Z,12.8
2022-10-12T19:53:22.417Z,12.8
2022-10-12T19:56:22.406Z,12.8
2022-10-12T19:59:22.412Z,12.8
2022-10-12T20:02:22.411Z,12.8
2022-10-12T20:05:22.416Z,12.8
2022-10-12T20:08:22.415Z,12.7
2022-10-12T20:11:24.654Z,12.7
2022-10-12T20:14:22.417Z,12.7
2022-10-12T20:17:22.416Z,12.7
2022-10-12T20:20:22.412Z,12.6
2022-10-12T20:23:22.412Z,12.6
2022-10-12T20:26:22.423Z,12.6
2022-10-12T20:29:22.427Z,12.6
2022-10-12T20:32:22.421Z,12.5
2022-10-12T20:35:22.424Z,12.5
2022-10-12T20:38:22.418Z,12.5
2022-10-12T20:41:22.428Z,12.4
2022-10-12T20:44:22.419Z,12.4
2022-10-12T20:47:22.421Z,12.4
2022-10-12T20:50:22.429Z,12.4
2022-10-12T20:53:22.423Z,12.4
2022-10-12T20:56:22.423Z,12.3
2022-10-12T20:59:22.422Z,12.3
2022-10-12T21:02:22.420Z,12.3
2022-10-12T21:05:22.419Z,12.3
2022-10-12T21:08:22.417Z,12.3
2022-10-12T21:11:22.422Z,12.2
2022-10-12T21:14:22.431Z,12.2
2022-10-12T21:17:22.434Z,12.2
2022-10-12T21:20:22.428Z,12.2
2022-10-12T21:23:22.427Z,12.2
2022-10-12T21:26:22.423Z,12.1
2022-10-12T21:29:23.416Z,12.1
2022-10-12T21:32:22.425Z,12.1
2022-10-12T21:35:22.425Z,12.1
2022-10-12T21:38:22.434Z,12.1
2022-10-12T21:41:22.428Z,12.1
2022-10-12T21:44:22.430Z,12.1
2022-10-12T21:47:22.422Z,12.1
2022-10-12T21:53:22.464Z,12.1
2022-10-12T21:56:22.446Z,12
2022-10-12T21:59:22.459Z,12
2022-10-12T22:05:22.462Z,12
2022-10-12T22:08:22.463Z,12
2022-10-12T22:11:22.473Z,11.9
2022-10-12T22:14:22.466Z,11.9
2022-10-12T22:17:22.465Z,11.9
2022-10-12T22:20:22.472Z,11.9
2022-10-12T22:23:22.459Z,11.9
2022-10-12T22:26:22.464Z,11.8
2022-10-12T22:29:22.476Z,11.8
2022-10-12T22:32:22.472Z,11.8
2022-10-12T22:35:22.463Z,11.8
2022-10-12T22:38:22.465Z,11.7
2022-10-12T22:41:22.468Z,11.7
2022-10-12T22:44:22.468Z,11.7
2022-10-12T22:47:22.468Z,11.7
2022-10-12T22:50:22.478Z,11.6
2022-10-12T22:53:22.462Z,11.6
2022-10-12T22:56:22.461Z,11.6
2022-10-12T22:59:22.469Z,11.6
2022-10-12T23:02:22.461Z,11.6
2022-10-12T23:05:22.462Z,11.5
2022-10-12T23:08:22.469Z,11.5
2022-10-12T23:11:22.472Z,11.5
2022-10-12T23:14:22.463Z,11.5
2022-10-12T23:17:22.476Z,11.4
2022-10-12T23:20:22.473Z,11.4
2022-10-12T23:23:22.469Z,11.4
2022-10-12T23:26:22.479Z,11.4
2022-10-12T23:29:22.469Z,11.4
2022-10-12T23:32:22.479Z,11.4
2022-10-12T23:35:22.476Z,11.3
2022-10-12T23:38:22.471Z,11.3
2022-10-12T23:41:22.476Z,11.3
2022-10-12T23:44:22.471Z,11.3
2022-10-12T23:47:22.484Z,11.3
2022-10-12T23:50:22.459Z,11.2
2022-10-12T23:53:22.465Z,11.2
2022-10-12T23:56:22.479Z,11.2
2022-10-12T23:59:22.475Z,11.2
